Date,TemperatureHighF,TemperatureAvgF,TemperatureLowF,DewpointHighF,DewpointAvgF,DewpointLowF,HumidityHigh,HumidityAvg,HumidityLow,PressureMaxIn,PressureMinIn,WindSpeedMaxMPH,WindSpeedAvgMPH,GustSpeedMaxMPH,PrecipitationSumIn
2013-1-1,25.2,18.9,13.6,15.3,8.2,2.8,78,63,45,30.23,30.13,11,2,13,0.00
2013-1-2,29.7,20.6,12.6,14.7,9.4,2.8,73,62,47,30.24,30.12,19,4,20,0.00
2013-1-3,29.7,26.3,19.8,24.4,19.9,14.4,83,77,71,30.27,30.10,15,3,18,0.00
2013-1-4,37.4,25.9,15.3,23.5,17.7,9.1,80,71,55,30.26,30.13,23,4,26,0.00
2013-1-5,38.1,31.9,25.2,33.1,26.8,20.7,90,82,65,30.26,29.94,21,4,24,0.03
2013-1-6,36.3,30.5,24.4,33.1,24.4,19.4,89,78,69,30.34,29.90,22,4,26,0.00
2013-1-7,40.1,29.8,21.6,26.6,22.1,17.4,84,74,55,30.35,30.11,24,6,25,0.00
2013-1-8,43.2,35.4,28.9,31.1,27.5,24.3,83,73,58,30.18,30.02,19,4,22,0.00
2013-1-9,51.1,41.3,35.2,33.1,27.3,20.1,79,59,33,30.49,30.00,34,5,37,0.00
2013-1-10,41.7,36.8,30.6,39.9,29.4,21.7,93,75,63,30.52,29.91,20,2,20,0.48
2013-1-11,54.0,50.2,41.4,52.9,47.9,39.6,96,92,86,29.91,29.66,22,6,26,0.17
2013-1-12,53.4,44.8,31.5,48.2,37.4,26.8,86,75,60,29.96,29.70,20,4,25,0.04
2013-1-13,31.5,24.9,15.4,28.0,20.6,8.4,90,83,72,30.25,29.85,18,2,23,0.00
2013-1-14,25.9,19.2,12.6,15.6,10.2,6.4,77,68,52,30.47,30.25,15,1,18,0.00
2013-1-15,31.3,24.7,18.5,21.6,15.8,11.1,74,69,59,30.46,30.13,2,0,4,0.02
2013-1-16,36.3,29.8,21.4,27.7,20.4,13.8,79,68,53,30.13,29.82,27,3,31,0.00
2013-1-17,34.3,27.9,23.5,29.1,13.8,5.0,82,56,36,30.43,30.06,16,2,20,0.00
2013-1-18,42.1,32.4,22.3,29.5,22.6,13.8,75,67,56,30.45,29.91,42,5,42,0.02
2013-1-19,47.7,42.2,27.7,36.9,30.7,10.2,70,64,42,29.94,29.71,33,8,43,0.00
2013-1-20,27.3,17.9,13.5,10.6,3.4,1.0,59,53,46,30.31,29.89,37,4,37,0.00
2013-1-21,14.9,9.8,3.9,3.0,-3.4,-8.5,62,54,44,30.31,30.16,23,5,26,0.00
2013-1-22,11.8,6.3,-0.8,-2.6,-5.9,-9.6,68,57,45,30.43,30.30,14,3,16,0.00
2013-1-23,19.8,15.2,9.7,13.6,5.4,-3.3,77,65,55,30.39,30.14,23,3,28,0.00
2013-1-24,21.2,15.3,7.3,14.5,4.7,-2.7,80,63,52,30.66,30.35,16,2,18,0.00
2013-1-25,27.9,22.7,19.0,21.0,14.7,7.9,82,71,57,30.42,30.00,19,2,19,0.00
2013-1-26,28.8,22.1,13.6,19.6,12.2,7.2,75,66,46,30.43,30.19,11,1,12,0.04
2013-1-27,37.6,29.9,25.5,35.4,23.8,18.1,92,78,69,30.41,29.92,19,2,22,0.02
2013-1-28,49.3,43.2,37.8,48.2,40.9,35.4,96,92,82,29.93,29.73,19,3,22,0.10
2013-1-29,61.2,56.4,39.0,58.3,54.6,37.4,97,94,90,29.74,29.30,22,5,29,1.11
2013-1-30,43.9,33.7,21.2,42.1,31.7,15.4,96,92,78,29.53,29.09,24,6,29,0.60
2013-1-31,21.2,14.7,6.1,15.6,7.2,-1.3,79,72,65,30.08,29.53,24,9,28,0.00